createdAt,value
2022-09-06T00:00:58.078Z,21.77429199
2022-09-06T00:01:58.495Z,21.79443359
2022-09-06T00:02:58.919Z,21.79443359
2022-09-06T00:04:00.511Z,21.77429199
2022-09-06T00:05:01.759Z,21.77429199
2022-09-06T00:06:02.158Z,21.8145752
2022-09-06T00:07:02.588Z,21.824646
2022-09-06T00:08:02.930Z,21.824646
2022-09-06T00:09:03.348Z,21.79443359
2022-09-06T00:10:04.557Z,21.75415039
2022-09-06T00:11:05.093Z,21.73400879
2022-09-06T00:12:05.404Z,21.68365479
2022-09-06T00:13:05.750Z,21.68365479
2022-09-06T00:14:06.156Z,21.70379639
2022-09-06T00:15:06.584Z,21.70379639
2022-09-06T00:16:07.121Z,21.71386719
2022-09-06T00:17:07.443Z,21.73400879
2022-09-06T00:18:07.849Z,21.75415039
2022-09-06T00:19:08.240Z,21.77429199
2022-09-06T00:20:08.673Z,21.79443359
2022-09-06T00:21:09.051Z,21.8145752
2022-09-06T00:22:09.480Z,21.824646
2022-09-06T00:23:09.826Z,21.8347168
2022-09-06T00:24:11.042Z,21.8347168
2022-09-06T00:25:11.668Z,21.8145752
2022-09-06T00:26:13.147Z,21.8145752
2022-09-06T00:27:13.507Z,21.824646
2022-09-06T00:28:13.894Z,21.8850708
2022-09-06T00:29:14.292Z,21.8649292
2022-09-06T00:30:14.727Z,21.8347168
2022-09-06T00:31:45.599Z,21.824646
2022-09-06T00:32:46.144Z,21.824646
2022-09-06T00:33:47.046Z,21.824646
2022-09-06T00:34:47.480Z,21.8347168
2022-09-06T00:35:47.881Z,21.8347168
2022-09-06T00:36:48.299Z,21.8548584
2022-09-06T00:37:48.703Z,21.8145752
2022-09-06T00:38:49.081Z,21.8145752
2022-09-06T00:39:49.542Z,21.8145752
2022-09-06T00:40:49.906Z,21.79443359
2022-09-06T00:41:50.280Z,21.824646
2022-09-06T00:42:50.689Z,21.824646
2022-09-06T00:43:51.762Z,21.8145752
2022-09-06T00:44:53.057Z,21.79443359
2022-09-06T00:45:53.535Z,21.77429199
2022-09-06T00:46:53.900Z,21.77429199
2022-09-06T00:47:54.308Z,21.824646
2022-09-06T00:48:54.695Z,21.8347168
2022-09-06T00:49:55.084Z,21.824646
2022-09-06T00:50:56.272Z,21.824646
2022-09-06T00:51:56.702Z,21.77429199
2022-09-06T00:52:57.225Z,21.74407959
2022-09-06T00:53:57.492Z,21.68365479
2022-09-06T00:54:58.556Z,21.67358398
2022-09-06T00:55:58.948Z,21.63330078
2022-09-06T00:56:59.385Z,21.58294678
2022-09-06T00:57:59.859Z,21.55273438
2022-09-06T00:59:01.048Z,21.56280518
2022-09-06T01:00:01.453Z,21.59301758
2022-09-06T01:01:01.850Z,21.59301758
2022-09-06T01:02:02.461Z,21.59301758
2022-09-06T01:03:02.756Z,21.58294678
2022-09-06T01:04:03.123Z,21.56280518
2022-09-06T01:05:03.505Z,21.56280518
2022-09-06T01:06:03.898Z,21.55273438
2022-09-06T01:07:04.311Z,21.58294678
2022-09-06T01:08:04.736Z,21.56280518
2022-09-06T01:09:05.097Z,21.59301758
2022-09-06T01:10:05.555Z,21.61315918
2022-09-06T01:11:05.935Z,21.63330078
2022-09-06T01:12:06.318Z,21.64337158
2022-09-06T01:13:06.750Z,21.64337158
2022-09-06T01:14:07.097Z,21.63330078
2022-09-06T01:15:08.065Z,21.61315918
2022-09-06T01:16:08.512Z,21.58294678
2022-09-06T01:17:08.915Z,21.58294678
2022-09-06T01:18:09.348Z,21.55273438
2022-09-06T01:19:10.569Z,21.55273438
2022-09-06T01:20:10.953Z,21.56280518
2022-09-06T01:21:11.546Z,21.56280518
2022-09-06T01:22:11.994Z,21.56280518
2022-09-06T01:23:12.396Z,21.55273438
2022-09-06T01:24:12.786Z,21.56280518
2022-09-06T01:25:14.068Z,21.56280518
2022-09-06T01:26:44.965Z,21.55273438
2022-09-06T01:27:45.367Z,21.55273438
2022-09-06T01:28:45.789Z,21.52252197
2022-09-06T01:29:46.147Z,21.48223877
2022-09-06T01:30:46.596Z,21.46209717
2022-09-06T01:31:46.962Z,21.42181396
2022-09-06T01:32:47.357Z,21.38153076
2022-09-06T01:33:47.813Z,21.37145996
2022-09-06T01:34:48.184Z,21.34124756
2022-09-06T01:35:49.269Z,21.33117676
2022-09-06T01:36:59.986Z,21.34124756
2022-09-06T01:37:50.082Z,21.33117676
2022-09-06T01:38:50.630Z,21.34124756
2022-09-06T01:39:50.946Z,21.34124756
2022-09-06T01:40:51.329Z,21.34124756
2022-09-06T01:41:51.733Z,21.36138916
2022-09-06T01:42:52.141Z,21.37145996
2022-09-06T01:43:53.278Z,21.36138916
2022-09-06T01:44:53.692Z,21.40167236
2022-09-06T01:45:54.832Z,21.42181396
2022-09-06T01:46:55.187Z,21.45202637
2022-09-06T01:47:55.601Z,21.46209717
2022-09-06T01:48:56.583Z,21.45202637
2022-09-06T01:49:56.972Z,21.40167236
2022-09-06T01:50:57.405Z,21.40167236
2022-09-06T01:51:57.826Z,21.40167236
2022-09-06T01:52:58.226Z,21.38153076
2022-09-06T01:53:58.662Z,21.38153076
2022-09-06T01:54:59.830Z,21.40167236
2022-09-06T01:56:00.769Z,21.38153076
2022-09-06T01:57:01.387Z,21.37145996
2022-09-06T01:58:01.645Z,21.40167236
2022-09-06T01:59:02.089Z,21.40167236
2022-09-06T02:00:02.480Z,21.40167236
2022-09-06T02:01:02.932Z,21.38153076
2022-09-06T02:02:03.352Z,21.37145996
2022-09-06T02:03:03.860Z,21.37145996
2022-09-06T02:04:04.321Z,21.34124756
2022-09-06T02:05:04.705Z,21.33117676
2022-09-06T02:06:05.782Z,21.30096436
2022-09-06T02:07:06.185Z,21.28082275
2022-09-06T02:08:06.734Z,21.28082275
2022-09-06T02:09:08.087Z,21.28082275
2022-09-06T02:10:08.499Z,21.31103516
2022-09-06T02:11:08.914Z,21.30096436
2022-09-06T02:12:09.433Z,21.33117676
2022-09-06T02:13:09.834Z,21.33117676
2022-09-06T02:14:10.266Z,21.31103516
2022-09-06T02:15:10.700Z,21.28082275
2022-09-06T02:16:11.107Z,21.26068115
2022-09-06T02:17:11.617Z,21.26068115
2022-09-06T02:18:12.064Z,21.26068115
2022-09-06T02:19:12.496Z,21.26068115
2022-09-06T02:20:12.919Z,21.26068115
2022-09-06T02:21:13.317Z,21.22039795
2022-09-06T02:22:44.215Z,21.24053955
2022-09-06T02:23:44.675Z,21.28082275
2022-09-06T02:24:45.102Z,21.30096436
2022-09-06T02:25:45.518Z,21.31103516
2022-09-06T02:26:45.941Z,21.31103516
2022-09-06T02:27:46.356Z,21.30096436
2022-09-06T02:28:46.833Z,21.28082275
2022-09-06T02:29:47.284Z,21.26068115
2022-09-06T02:30:47.739Z,21.22039795
2022-09-06T02:31:48.078Z,21.19018555
2022-09-06T02:32:48.459Z,21.18011475
2022-09-06T02:33:48.931Z,21.14990234
2022-09-06T02:34:49.431Z,21.11968994
2022-09-06T02:35:50.597Z,21.10961914
2022-09-06T02:36:50.992Z,21.10961914
2022-09-06T02:37:51.387Z,21.08947754
2022-09-06T02:38:52.587Z,21.11968994
2022-09-06T02:39:53.088Z,21.10961914
2022-09-06T02:40:53.479Z,21.11968994
2022-09-06T02:41:53.863Z,21.12976074
2022-09-06T02:42:54.280Z,21.14990234
2022-09-06T02:43:54.743Z,21.15997314
2022-09-06T02:44:55.246Z,21.14990234
2022-09-06T02:45:56.332Z,21.11968994
2022-09-06T02:46:57.583Z,21.07940674
2022-09-06T02:47:57.994Z,21.07940674
2022-09-06T02:48:58.482Z,21.00891113
2022-09-06T02:49:58.959Z,20.99884033
2022-09-06T02:51:00.118Z,21.00891113
2022-09-06T02:52:00.519Z,20.99884033
2022-09-06T02:53:00.905Z,20.95855713
2022-09-06T02:54:01.379Z,20.93841553
2022-09-06T02:55:01.849Z,20.93841553
2022-09-06T02:56:02.800Z,20.93841553
2022-09-06T02:57:03.217Z,20.95855713
2022-09-06T02:58:03.632Z,20.95855713
2022-09-06T02:59:04.603Z,20.96862793
2022-09-06T03:00:05.070Z,20.93841553
2022-09-06T03:01:05.564Z,20.96862793
2022-09-06T03:02:05.921Z,20.93841553
2022-09-06T03:03:06.301Z,20.95855713
2022-09-06T03:04:06.697Z,20.95855713
2022-09-06T03:05:07.883Z,20.93841553
2022-09-06T03:06:08.807Z,20.92834473
2022-09-06T03:07:09.215Z,20.89813232
2022-09-06T03:08:09.600Z,20.87799072
2022-09-06T03:09:10.588Z,20.84777832
2022-09-06T03:10:11.134Z,20.86791992
2022-09-06T03:11:11.802Z,20.89813232
2022-09-06T03:12:12.221Z,20.86791992
2022-09-06T03:13:12.650Z,20.89813232
2022-09-06T03:14:43.611Z,20.90820313
2022-09-06T03:15:44.620Z,20.92834473
2022-09-06T03:16:45.063Z,20.92834473
2022-09-06T03:17:45.427Z,20.93841553
2022-09-06T03:18:45.826Z,20.93841553
2022-09-06T03:19:46.225Z,20.96862793
2022-09-06T03:20:46.719Z,20.97869873
2022-09-06T03:21:47.143Z,20.96862793
2022-09-06T03:22:47.581Z,20.96862793
2022-09-06T03:23:48.025Z,20.97869873
2022-09-06T03:24:48.421Z,21.00891113
2022-09-06T03:25:49.913Z,20.99884033
2022-09-06T03:26:50.838Z,21.00891113
2022-09-06T03:27:52.101Z,20.97869873
2022-09-06T03:28:52.501Z,20.95855713
2022-09-06T03:29:52.911Z,20.95855713
2022-09-06T03:30:53.552Z,20.93841553
2022-09-06T03:31:53.935Z,20.96862793
2022-09-06T03:32:54.383Z,20.99884033
2022-09-06T03:33:54.772Z,20.97869873
2022-09-06T03:34:55.152Z,20.97869873
2022-09-06T03:35:56.611Z,20.93841553
2022-09-06T03:36:57.057Z,20.90820313
2022-09-06T03:37:57.487Z,20.89813232
2022-09-06T03:38:57.877Z,20.90820313
2022-09-06T03:39:58.312Z,20.87799072
2022-09-06T03:40:58.746Z,20.84777832
2022-09-06T03:41:59.159Z,20.78735352
2022-09-06T03:42:59.623Z,20.74707031
2022-09-06T03:44:00.606Z,20.70678711
2022-09-06T03:45:01.015Z,20.72692871
2022-09-06T03:46:02.199Z,20.72692871
2022-09-06T03:47:02.647Z,20.75714111
2022-09-06T03:48:03.051Z,20.77728271
2022-09-06T03:49:03.444Z,20.74707031
2022-09-06T03:50:03.835Z,20.72692871
2022-09-06T03:51:05.152Z,20.70678711
2022-09-06T03:52:05.540Z,20.6262207
2022-09-06T03:53:06.006Z,20.5960083
2022-09-06T03:54:06.395Z,20.5557251
2022-09-06T03:55:06.788Z,20.5355835
2022-09-06T03:56:08.168Z,20.5255127
2022-09-06T03:57:08.555Z,20.50537109
2022-09-06T03:58:09.031Z,20.5355835
2022-09-06T03:59:09.452Z,20.5355835
2022-09-06T04:00:09.873Z,20.5355835
2022-09-06T04:01:10.391Z,20.5355835
2022-09-06T04:02:10.773Z,20.5557251
2022-09-06T04:03:11.306Z,20.5960083
2022-09-06T04:04:11.861Z,20.6060791
2022-09-06T04:05:43.799Z,20.6060791
2022-09-06T04:06:44.873Z,20.5960083
2022-09-06T04:07:45.327Z,20.5960083
2022-09-06T04:08:45.752Z,20.65643311
2022-09-06T04:09:46.126Z,20.68664551
2022-09-06T04:10:46.513Z,20.70678711
2022-09-06T04:11:46.980Z,20.70678711
2022-09-06T04:12:47.371Z,20.67657471
2022-09-06T04:13:47.832Z,20.67657471
2022-09-06T04:14:48.823Z,20.6362915
2022-09-06T04:15:49.241Z,20.6060791
2022-09-06T04:16:50.494Z,20.6060791
2022-09-06T04:17:50.783Z,20.5960083
2022-09-06T04:18:51.217Z,20.5758667
2022-09-06T04:19:51.614Z,20.5557251
2022-09-06T04:20:52.043Z,20.5355835
2022-09-06T04:21:52.515Z,20.5657959
2022-09-06T04:22:53.828Z,20.5960083
2022-09-06T04:23:54.273Z,20.5960083
2022-09-06T04:24:54.683Z,20.6262207
2022-09-06T04:25:55.081Z,20.6362915
2022-09-06T04:26:56.379Z,20.67657471
2022-09-06T04:27:56.796Z,20.68664551
2022-09-06T04:28:57.210Z,20.71685791
2022-09-06T04:29:57.650Z,20.75714111
2022-09-06T04:31:01.979Z,20.78735352
2022-09-06T04:31:58.533Z,20.77728271
2022-09-06T04:32:58.933Z,20.78735352
2022-09-06T04:33:59.378Z,20.80749512
2022-09-06T04:34:59.861Z,20.80749512
2022-09-06T04:36:00.269Z,20.84777832
2022-09-06T04:37:01.413Z,20.87799072
2022-09-06T04:38:01.832Z,20.87799072
2022-09-06T04:39:02.281Z,20.90820313
2022-09-06T04:40:02.776Z,20.92834473
2022-09-06T04:41:03.612Z,20.90820313
2022-09-06T04:42:04.076Z,20.90820313
2022-09-06T04:43:04.486Z,20.90820313
2022-09-06T04:44:04.912Z,20.93841553
2022-09-06T04:45:06.348Z,20.93841553
2022-09-06T04:46:06.911Z,20.89813232
2022-09-06T04:47:09.624Z,20.81756592
2022-09-06T04:48:08.323Z,20.77728271
2022-09-06T04:49:08.763Z,20.77728271
2022-09-06T04:50:09.188Z,20.78735352
2022-09-06T04:51:10.113Z,20.82763672
2022-09-06T04:52:10.548Z,20.84777832
2022-09-06T04:53:11.118Z,20.84777832
2022-09-06T04:54:11.547Z,20.90820313
2022-09-06T04:55:42.224Z,20.92834473
2022-09-06T04:56:43.614Z,20.93841553
2022-09-06T04:57:47.451Z,20.92834473
2022-09-06T04:58:44.507Z,20.95855713
2022-09-06T04:59:44.943Z,20.96862793
2022-09-06T05:00:45.424Z,20.96862793
2022-09-06T05:01:45.770Z,21.00891113
2022-09-06T05:02:46.309Z,21.00891113
2022-09-06T05:03:46.691Z,21.02905273
2022-09-06T05:04:47.132Z,21.02905273
2022-09-06T05:05:48.305Z,21.02905273
2022-09-06T05:06:49.617Z,21.04919434
2022-09-06T05:07:50.095Z,21.07940674
2022-09-06T05:08:51.363Z,21.08947754
2022-09-06T05:09:51.825Z,21.10961914
2022-09-06T05:10:52.222Z,21.10961914
2022-09-06T05:11:52.615Z,21.12976074
2022-09-06T05:12:53.114Z,21.15997314
2022-09-06T05:13:53.494Z,21.18011475
2022-09-06T05:14:53.895Z,21.18011475
2022-09-06T05:15:54.283Z,21.21032715
2022-09-06T05:16:55.727Z,21.24053955
2022-09-06T05:17:56.053Z,21.24053955
2022-09-06T05:18:56.480Z,21.22039795
2022-09-06T05:19:56.909Z,21.22039795
2022-09-06T05:20:58.126Z,21.22039795
2022-09-06T05:21:58.576Z,21.21032715
2022-09-06T05:22:59.016Z,21.22039795
2022-09-06T05:23:59.453Z,21.22039795
2022-09-06T05:24:59.978Z,21.24053955
2022-09-06T05:26:00.391Z,21.26068115
2022-09-06T05:27:01.320Z,21.22039795
2022-09-06T05:28:01.794Z,21.22039795
2022-09-06T05:29:02.229Z,21.21032715
2022-09-06T05:30:02.677Z,21.22039795
2022-09-06T05:31:03.184Z,21.24053955
2022-09-06T05:32:03.653Z,21.26068115
2022-09-06T05:33:03.982Z,21.26068115
2022-09-06T05:34:04.392Z,21.27075195
2022-09-06T05:35:04.834Z,21.30096436
2022-09-06T05:36:05.828Z,21.30096436
2022-09-06T05:37:06.830Z,21.33117676
2022-09-06T05:38:07.246Z,21.33117676
2022-09-06T05:39:07.729Z,21.31103516
2022-09-06T05:40:08.233Z,21.30096436
2022-09-06T05:41:08.581Z,21.31103516
2022-09-06T05:42:08.989Z,21.31103516
2022-09-06T05:43:09.399Z,21.31103516
2022-09-06T05:44:09.837Z,21.33117676
2022-09-06T05:45:10.278Z,21.33117676
2022-09-06T05:46:10.843Z,21.34124756
2022-09-06T05:47:42.034Z,21.31103516
2022-09-06T05:48:42.503Z,21.36138916
2022-09-06T05:49:43.640Z,21.37145996
2022-09-06T05:50:44.109Z,21.37145996
2022-09-06T05:51:44.547Z,21.34124756
2022-09-06T05:52:44.955Z,21.31103516
2022-09-06T05:53:45.377Z,21.27075195
2022-09-06T05:54:45.849Z,21.28082275
2022-09-06T05:55:46.864Z,21.28082275
2022-09-06T05:56:48.160Z,21.28082275
2022-09-06T05:57:48.557Z,21.27075195
2022-09-06T05:58:48.992Z,21.24053955
2022-09-06T05:59:51.465Z,21.21032715
2022-09-06T06:00:50.922Z,21.14990234
2022-09-06T06:01:51.363Z,21.12976074
2022-09-06T06:02:51.716Z,21.10961914
2022-09-06T06:03:52.166Z,21.11968994
2022-09-06T06:04:52.607Z,21.11968994
2022-09-06T06:05:53.653Z,21.12976074
2022-09-06T06:06:54.091Z,21.11968994
2022-09-06T06:07:55.138Z,21.11968994
2022-09-06T06:08:55.570Z,21.12976074
2022-09-06T06:09:56.045Z,21.15997314
2022-09-06T06:10:56.492Z,21.15997314
2022-09-06T06:11:56.944Z,21.18011475
2022-09-06T06:12:57.362Z,21.22039795
2022-09-06T06:13:58.832Z,21.24053955
2022-09-06T06:14:59.082Z,21.26068115
2022-09-06T06:15:59.529Z,21.28082275
2022-09-06T06:17:00.703Z,21.30096436
2022-09-06T06:18:01.067Z,21.33117676
2022-09-06T06:19:01.495Z,21.34124756
2022-09-06T06:20:01.885Z,21.37145996
2022-09-06T06:21:02.381Z,21.38153076
2022-09-06T06:22:02.859Z,21.42181396
2022-09-06T06:23:03.276Z,21.45202637
2022-09-06T06:24:03.733Z,21.45202637
2022-09-06T06:25:04.137Z,21.51245117
2022-09-06T06:26:04.569Z,21.51245117
2022-09-06T06:27:05.654Z,21.51245117
2022-09-06T06:28:06.085Z,21.51245117
2022-09-06T06:29:06.510Z,21.51245117
2022-09-06T06:30:06.870Z,21.49230957
2022-09-06T06:31:07.351Z,21.52252197
2022-09-06T06:32:07.877Z,21.52252197
2022-09-06T06:33:08.208Z,21.53259277
2022-09-06T06:34:09.171Z,21.55273438
2022-09-06T06:35:09.546Z,21.58294678
2022-09-06T06:36:10.112Z,21.63330078
2022-09-06T06:37:41.874Z,21.64337158
2022-09-06T06:38:42.308Z,21.64337158
2022-09-06T06:39:42.922Z,21.66351318
2022-09-06T06:40:43.133Z,21.68365479
2022-09-06T06:41:43.580Z,21.67358398
2022-09-06T06:42:43.990Z,21.66351318
2022-09-06T06:43:44.403Z,21.68365479
2022-09-06T06:44:44.845Z,21.68365479
2022-09-06T06:45:45.300Z,21.67358398
2022-09-06T06:46:45.716Z,21.70379639
2022-09-06T06:47:46.885Z,21.70379639
2022-09-06T06:48:49.479Z,21.68365479
2022-09-06T06:49:47.751Z,21.68365479
2022-09-06T06:50:48.648Z,21.71386719
2022-09-06T06:51:49.129Z,21.73400879
2022-09-06T06:52:49.569Z,21.71386719
2022-09-06T06:53:49.981Z,21.73400879
2022-09-06T06:54:50.426Z,21.73400879
2022-09-06T06:55:50.781Z,21.74407959
2022-09-06T06:56:51.227Z,21.73400879
2022-09-06T06:57:52.351Z,21.74407959
2022-09-06T06:58:52.769Z,21.74407959
2022-09-06T06:59:53.185Z,21.75415039
2022-09-06T07:00:54.289Z,21.79443359
2022-09-06T07:01:54.775Z,21.79443359
2022-09-06T07:02:55.080Z,21.8145752
2022-09-06T07:03:55.498Z,21.79443359
2022-09-06T07:04:55.920Z,21.8548584
2022-09-06T07:06:12.549Z,21.8347168
2022-09-06T07:07:57.207Z,21.8951416
2022-09-06T07:08:58.158Z,21.9052124
2022-09-06T07:10:58.970Z,21.9354248
2022-09-06T07:11:59.459Z,21.97570801
2022-09-06T07:12:59.978Z,22.00592041
2022-09-06T07:14:00.412Z,22.03613281
2022-09-06T07:15:00.871Z,22.04620361
2022-09-06T07:16:01.270Z,22.05627441
2022-09-06T07:17:04.111Z,22.05627441
2022-09-06T07:18:02.115Z,22.10662842
2022-09-06T07:19:03.444Z,22.13684082
2022-09-06T07:20:16.592Z,22.16705322
2022-09-06T07:22:05.910Z,22.23754883
2022-09-06T07:24:06.347Z,22.28790283
2022-09-06T07:25:06.128Z,22.30804443
2022-09-06T07:26:06.545Z,22.29797363
2022-09-06T07:28:08.346Z,22.32818604
2022-09-06T07:29:08.885Z,22.32818604
2022-09-06T07:30:09.346Z,22.35839844
2022-09-06T07:32:40.796Z,22.37854004
2022-09-06T07:33:41.204Z,22.37854004
2022-09-06T07:34:41.695Z,22.38861084
2022-09-06T07:35:42.122Z,22.40875244
2022-09-06T07:36:43.354Z,22.38861084
2022-09-06T07:37:44.796Z,22.41882324
2022-09-06T07:38:45.144Z,22.44903564
2022-09-06T07:39:45.595Z,22.47924805
2022-09-06T07:40:45.990Z,22.48931885
2022-09-06T07:41:46.392Z,22.50946045
2022-09-06T07:42:46.873Z,22.53967285
2022-09-06T07:43:47.856Z,22.59002686
2022-09-06T07:44:48.431Z,22.60009766
2022-09-06T07:45:48.742Z,22.61016846
2022-09-06T07:46:50.093Z,22.63031006
2022-09-06T07:47:58.621Z,22.63031006
2022-09-06T07:48:51.596Z,22.64038086
2022-09-06T07:50:54.663Z,22.63031006
2022-09-06T07:51:52.891Z,22.64038086
2022-09-06T07:53:11.852Z,22.64038086
2022-09-06T07:54:06.880Z,22.67059326
2022-09-06T07:54:54.215Z,22.69073486
2022-09-06T07:55:54.670Z,22.69073486
2022-09-06T07:56:55.065Z,22.74108887
2022-09-06T07:57:56.390Z,22.76123047
2022-09-06T07:58:56.797Z,22.81158447
2022-09-06T07:59:57.299Z,22.82165527
2022-09-06T08:00:57.688Z,22.85186768
2022-09-06T08:01:58.133Z,22.89215088
2022-09-06T08:02:58.462Z,22.91229248
2022-09-06T08:03:59.671Z,22.94250488
2022-09-06T08:05:00.229Z,22.94250488
2022-09-06T08:09:02.362Z,23.03314209
2022-09-06T08:10:02.787Z,23.03314209
2022-09-06T08:11:03.232Z,23.06335449
2022-09-06T08:12:03.602Z,23.07342529
2022-09-06T08:13:04.028Z,23.07342529
2022-09-06T08:14:04.506Z,23.09356689
2022-09-06T08:15:04.972Z,23.1137085
2022-09-06T08:16:06.462Z,23.1237793
2022-09-06T08:17:06.767Z,23.1237793
2022-09-06T08:18:07.983Z,23.1439209
2022-09-06T08:19:08.407Z,23.1439209
2022-09-06T08:20:09.284Z,23.1439209
2022-09-06T08:21:40.884Z,23.1439209
2022-09-06T08:22:41.525Z,23.1439209
2022-09-06T08:23:42.927Z,23.1237793
2022-09-06T08:24:43.334Z,23.1439209
2022-09-06T08:25:44.361Z,23.1539917
2022-09-06T08:26:44.799Z,23.1539917
2022-09-06T08:27:45.179Z,23.1640625
2022-09-06T08:28:46.433Z,23.1842041
2022-09-06T08:29:46.843Z,23.1942749
2022-09-06T08:30:47.280Z,23.2144165
2022-09-06T08:31:47.810Z,23.23455811
2022-09-06T08:32:48.107Z,23.26477051
2022-09-06T08:33:48.514Z,23.30505371
2022-09-06T08:34:48.944Z,23.30505371
2022-09-06T08:35:49.328Z,23.34533691
2022-09-06T08:36:49.721Z,23.40576172
2022-09-06T08:37:50.698Z,23.43597412
2022-09-06T08:38:51.105Z,23.49639893
2022-09-06T08:39:51.637Z,23.53668213
2022-09-06T08:40:51.929Z,23.58703613
2022-09-06T08:41:52.341Z,23.62731934
2022-09-06T08:42:53.459Z,23.67767334
2022-09-06T08:45:55.814Z,23.80859375
2022-09-06T08:46:55.289Z,23.81866455
2022-09-06T08:47:56.223Z,23.86901855
2022-09-06T08:48:56.692Z,23.89923096
2022-09-06T08:49:57.111Z,23.91937256
2022-09-06T08:50:57.519Z,23.92944336
2022-09-06T08:51:57.930Z,23.93951416
2022-09-06T08:53:16.345Z,23.95965576
2022-09-06T08:53:58.799Z,23.98986816
2022-09-06T08:54:59.906Z,24.02008057
2022-09-06T08:56:00.379Z,24.06036377
2022-09-06T08:57:00.796Z,24.08050537
2022-09-06T08:58:02.194Z,24.12078857
2022-09-06T08:59:02.633Z,24.14093018
2022-09-06T09:00:03.039Z,24.18121338
2022-09-06T09:01:03.520Z,24.21142578
2022-09-06T09:02:03.922Z,24.27185059
2022-09-06T09:03:04.301Z,24.29199219
2022-09-06T09:04:04.720Z,24.31213379
2022-09-06T09:05:05.127Z,24.34234619
2022-09-06T09:06:05.525Z,24.36248779
2022-09-06T09:07:06.893Z,24.37255859
2022-09-06T09:08:08.247Z,24.4128418
2022-09-06T09:09:39.101Z,24.4128418
2022-09-06T09:10:39.480Z,24.3927002
2022-09-06T09:11:39.868Z,24.4128418
2022-09-06T09:12:40.338Z,24.4128418
2022-09-06T09:13:40.768Z,24.4128418
2022-09-06T09:14:41.237Z,24.4128418
2022-09-06T09:15:41.662Z,24.4128418
2022-09-06T09:16:42.956Z,24.3927002
2022-09-06T09:17:43.383Z,24.3927002
2022-09-06T09:18:44.401Z,24.36248779
2022-09-06T09:19:44.814Z,24.36248779
2022-09-06T09:20:45.232Z,24.33227539
2022-09-06T09:21:46.379Z,24.31213379
2022-09-06T09:22:46.857Z,24.31213379
2022-09-06T09:23:47.264Z,24.31213379
2022-09-06T09:24:47.663Z,24.30206299
2022-09-06T09:25:48.124Z,24.30206299
2022-09-06T09:26:48.531Z,24.30206299
2022-09-06T09:27:49.020Z,24.27185059
2022-09-06T09:28:50.390Z,24.27185059
2022-09-06T09:30:51.230Z,24.30206299
2022-09-06T09:31:53.639Z,24.31213379
2022-09-06T09:32:52.061Z,24.31213379
2022-09-06T09:33:52.471Z,24.33227539
2022-09-06T09:34:52.920Z,24.34234619
2022-09-06T09:35:53.324Z,24.34234619
2022-09-06T09:37:57.600Z,24.36248779
2022-09-06T09:38:56.414Z,24.37255859
2022-09-06T09:39:56.900Z,24.37255859
2022-09-06T09:40:57.251Z,24.36248779
2022-09-06T09:41:57.712Z,24.36248779
2022-09-06T09:42:58.139Z,24.37255859
2022-09-06T09:44:03.677Z,24.36248779
2022-09-06T09:44:58.966Z,24.34234619
2022-09-06T09:46:00.176Z,24.34234619
2022-09-06T09:47:00.648Z,24.33227539
2022-09-06T09:48:01.088Z,24.34234619
2022-09-06T09:49:02.414Z,24.33227539
2022-09-06T09:50:02.849Z,24.31213379
2022-09-06T09:51:03.275Z,24.29199219
2022-09-06T09:52:03.692Z,24.27185059
2022-09-06T09:53:04.120Z,24.23156738
2022-09-06T09:54:04.547Z,24.12078857
2022-09-06T09:55:04.992Z,24.05029297
2022-09-06T09:56:05.883Z,23.95965576
2022-09-06T09:57:09.014Z,23.91937256
2022-09-06T09:58:06.834Z,23.80859375
2022-09-06T09:59:38.384Z,23.78845215
2022-09-06T10:00:38.836Z,23.78845215
2022-09-06T10:01:39.202Z,23.76831055
2022-09-06T10:02:39.596Z,23.74816895
2022-09-06T10:05:40.877Z,23.70788574
2022-09-06T10:07:09.133Z,23.67767334
2022-09-06T10:07:42.916Z,23.63739014
2022-09-06T10:08:44.223Z,23.66760254
2022-09-06T10:09:44.636Z,23.63739014
2022-09-06T10:10:45.036Z,23.63739014
2022-09-06T10:11:45.425Z,23.61724854
2022-09-06T10:12:45.847Z,23.61724854
2022-09-06T10:13:46.352Z,23.62731934
2022-09-06T10:14:46.748Z,23.63739014
2022-09-06T10:15:48.007Z,23.58703613
2022-09-06T10:16:48.334Z,23.53668213
2022-09-06T10:17:49.692Z,23.53668213
2022-09-06T10:18:51.232Z,23.52661133
2022-09-06T10:19:51.667Z,23.48632813
2022-09-06T10:20:52.109Z,23.43597412
2022-09-06T10:21:53.429Z,23.44604492
2022-09-06T10:22:53.875Z,23.41583252
2022-09-06T10:24:54.739Z,23.40576172
2022-09-06T10:25:55.289Z,23.36547852
2022-09-06T10:26:55.718Z,23.34533691
2022-09-06T10:28:57.403Z,23.30505371
2022-09-06T10:29:57.787Z,23.26477051
2022-09-06T10:30:58.293Z,23.23455811
2022-09-06T10:31:58.630Z,23.2244873
2022-09-06T10:32:59.698Z,23.2244873
2022-09-06T10:34:00.244Z,23.2244873
2022-09-06T10:35:00.708Z,23.1640625
2022-09-06T10:36:01.164Z,23.1237793
2022-09-06T10:37:02.186Z,23.06335449
2022-09-06T10:38:02.586Z,23.06335449
2022-09-06T10:39:04.336Z,22.94250488
2022-09-06T10:40:04.452Z,22.91229248
2022-09-06T10:41:04.801Z,22.81158447
2022-09-06T10:42:05.185Z,22.76123047
2022-09-06T10:43:05.582Z,22.74108887
2022-09-06T10:44:06.056Z,22.64038086
2022-09-06T10:45:06.487Z,22.56988525
2022-09-06T10:46:06.943Z,22.44903564
2022-09-06T10:47:37.754Z,22.41882324
2022-09-06T10:48:39.218Z,22.37854004
2022-09-06T10:49:39.657Z,22.26776123
2022-09-06T10:50:40.098Z,22.19726563
2022-09-06T10:51:40.540Z,22.20733643
2022-09-06T10:52:40.938Z,22.22747803
2022-09-06T10:53:41.684Z,22.25769043
2022-09-06T10:54:42.965Z,22.26776123
2022-09-06T10:55:46.263Z,22.26776123
2022-09-06T10:56:43.945Z,22.28790283
2022-09-06T10:59:47.552Z,22.28790283
2022-09-06T11:00:46.699Z,22.23754883
2022-09-06T11:01:47.162Z,22.22747803
2022-09-06T11:02:48.297Z,22.18719482
2022-09-06T11:05:48.670Z,22.18719482
2022-09-06T11:06:49.065Z,22.18719482
2022-09-06T11:08:53.525Z,22.19726563
2022-09-06T11:09:52.208Z,22.16705322
2022-09-06T11:10:52.661Z,22.18719482
2022-09-06T11:11:53.046Z,22.08648682
2022-09-06T11:12:53.444Z,22.00592041
2022-09-06T11:13:53.917Z,21.98577881
2022-09-06T11:14:54.932Z,22.00592041
2022-09-06T11:15:55.437Z,21.98577881
2022-09-06T11:16:55.800Z,22.00592041
2022-09-06T11:17:56.240Z,21.98577881
2022-09-06T11:18:57.262Z,21.97570801
2022-09-06T11:19:57.734Z,21.8649292
2022-09-06T11:20:58.140Z,21.8649292
2022-09-06T11:21:58.606Z,21.9052124
2022-09-06T11:22:59.050Z,21.9052124
2022-09-06T11:23:59.514Z,21.8850708
2022-09-06T11:25:00.073Z,21.9052124
2022-09-06T11:26:01.419Z,21.95556641
2022-09-06T11:27:01.849Z,22.00592041